Time;durP1;ratioP1;P1;durP2;ratioP2;P2;SDS_P1;SDS_P2;PMS_P1;PMS_P2;Temp;Humidity;BMP_temperature;BMP_pressure;BME280_temperature;BME280_humidity;BME280_pressure;Samples;Min_cycle;Max_cycle;Signal;HPM_P1;HPM_P2
2022/06/15 00:01:58;;;;;;;14.63;7.60;;;;;;;;;;5054187;28;20033;-71
2022/06/15 00:04:24;;;;;;;11.30;7.38;;;;;;;;;;5074419;28;20037;-71
2022/06/15 00:06:50;;;;;;;11.95;6.82;;;;;;;;;;5063955;28;20070;-71
2022/06/15 00:09:16;;;;;;;12.07;6.97;;;;;;;;;;5065001;28;20040;-72
2022/06/15 00:11:43;;;;;;;15.00;7.38;;;;;;;;;;5073593;28;20052;-71
2022/06/15 00:14:14;;;;;;;13.55;7.82;;;;;;;;;;5074279;28;20070;-72
2022/06/15 00:16:40;;;;;;;15.05;7.68;;;;;;;;;;5066632;28;20509;-71
2022/06/15 00:19:07;;;;;;;10.30;6.22;;;;;;;;;;5068470;28;20123;-71
2022/06/15 00:21:33;;;;;;;10.65;6.80;;;;;;;;;;5073988;28;20048;-72
2022/06/15 00:23:59;;;;;;;11.02;6.70;;;;;;;;;;5075159;28;20033;-72
2022/06/15 00:26:25;;;;;;;11.85;7.22;;;;;;;;;;5057404;28;20045;-72
2022/06/15 00:28:52;;;;;;;13.15;6.80;;;;;;;;;;5061381;28;20044;-72
2022/06/15 00:31:19;;;;;;;11.60;6.65;;;;;;;;;;5074103;28;20399;-72
2022/06/15 00:33:45;;;;;;;14.05;6.88;;;;;;;;;;5073511;28;20040;-72
2022/06/15 00:36:12;;;;;;;9.85;6.63;;;;;;;;;;5040715;28;20115;-72
2022/06/15 00:38:45;;;;;;;13.45;6.82;;;;;;;;;;5066003;28;20041;-72
2022/06/15 00:41:13;;;;;;;10.20;6.97;;;;;;;;;;5100379;28;20447;-72
2022/06/15 00:43:44;;;;;;;11.18;7.28;;;;;;;;;;5074809;28;20055;-71
2022/06/15 00:46:31;;;;;;;15.18;7.65;;;;;;;;;;5068213;28;20044;-72
2022/06/15 00:49:03;;;;;;;13.40;7.05;;;;;;;;;;5079325;28;20484;-71
2022/06/15 00:51:30;;;;;;;15.40;7.78;;;;;;;;;;5080345;28;20072;-71
2022/06/15 00:53:57;;;;;;;15.20;7.60;;;;;;;;;;5073097;28;20097;-72
2022/06/15 00:56:23;;;;;;;16.60;7.38;;;;;;;;;;5073446;28;20515;-72
2022/06/15 00:58:52;;;;;;;13.18;7.45;;;;;;;;;;5065583;28;20071;-71
2022/06/15 01:01:18;;;;;;;14.90;7.75;;;;;;;;;;5053405;28;20075;-72
2022/06/15 01:03:46;;;;;;;10.75;6.50;;;;;;;;;;5070741;28;20496;-72
2022/06/15 01:06:22;;;;;;;13.65;7.72;;;;;;;;;;5073512;28;20048;-72
2022/06/15 01:08:59;;;;;;;13.75;7.25;;;;;;;;;;5069750;28;20110;-71
2022/06/15 01:11:35;;;;;;;14.73;7.85;;;;;;;;;;5078223;28;20037;-72
2022/06/15 01:14:01;;;;;;;12.40;7.15;;;;;;;;;;5071959;28;20032;-72
2022/06/15 01:16:39;;;;;;;15.48;7.78;;;;;;;;;;5072978;28;20083;-72
2022/06/15 01:19:18;;;;;;;13.68;7.47;;;;;;;;;;5072895;28;20094;-72
2022/06/15 01:21:50;;;;;;;12.43;6.18;;;;;;;;;;5088165;28;20041;-72
2022/06/15 01:24:35;;;;;;;15.95;6.85;;;;;;;;;;5071200;28;20059;-72
2022/06/15 01:27:11;;;;;;;11.55;7.13;;;;;;;;;;5072512;28;20044;-72
2022/06/15 01:29:55;;;;;;;14.77;7.15;;;;;;;;;;5047524;28;20052;-71
2022/06/15 01:32:27;;;;;;;11.98;5.90;;;;;;;;;;5057913;28;20049;-72
2022/06/15 01:35:11;;;;;;;11.27;6.93;;;;;;;;;;5072350;28;20093;-71
2022/06/15 01:37:48;;;;;;;13.93;7.05;;;;;;;;;;5072907;28;20094;-72
2022/06/15 01:40:14;;;;;;;11.57;6.70;;;;;;;;;;5072094;28;20051;-72
2022/06/15 01:42:43;;;;;;;12.55;6.75;;;;;;;;;;5060622;28;20131;-72
2022/06/15 01:45:15;;;;;;;12.00;7.38;;;;;;;;;;5071885;28;20052;-72
2022/06/15 01:47:42;;;;;;;12.45;7.47;;;;;;;;;;5072341;28;20041;-72
2022/06/15 01:50:19;;;;;;;13.23;7.13;;;;;;;;;;5072056;28;20597;-72
2022/06/15 01:52:47;;;;;;;11.95;7.50;;;;;;;;;;5053870;28;20045;-72
2022/06/15 01:55:17;;;;;;;14.32;7.70;;;;;;;;;;5046729;28;20048;-72
2022/06/15 01:57:45;;;;;;;11.85;7.25;;;;;;;;;;5072750;28;20044;-72
2022/06/15 02:00:14;;;;;;;9.50;5.82;;;;;;;;;;5073325;28;20036;-72
2022/06/15 02:02:58;;;;;;;12.32;6.63;;;;;;;;;;5051227;28;20043;-72
2022/06/15 02:05:40;;;;;;;12.05;6.80;;;;;;;;;;5052780;28;20119;-72
2022/06/15 02:08:27;;;;;;;12.88;6.20;;;;;;;;;;5051360;28;20397;-72
2022/06/15 02:10:59;;;;;;;11.07;5.88;;;;;;;;;;5052920;28;20036;-72
2022/06/15 02:13:32;;;;;;;10.68;6.78;;;;;;;;;;5049754;28;20063;-72
2022/06/15 02:16:03;;;;;;;12.48;6.93;;;;;;;;;;5045093;28;20074;-72
2022/06/15 02:18:29;;;;;;;11.20;7.13;;;;;;;;;;5035182;28;20033;-72
2022/06/15 02:20:59;;;;;;;12.13;7.13;;;;;;;;;;5031622;28;20040;-72
2022/06/15 02:23:26;;;;;;;12.02;7.30;;;;;;;;;;5048698;28;20041;-72
2022/06/15 02:25:53;;;;;;;11.85;6.28;;;;;;;;;;5053910;28;20362;-72
2022/06/15 02:28:22;;;;;;;10.15;6.65;;;;;;;;;;5054130;28;20559;-72
2022/06/15 02:30:48;;;;;;;15.82;7.10;;;;;;;;;;5055221;28;20040;-72
2022/06/15 02:33:25;;;;;;;13.13;6.65;;;;;;;;;;5053101;28;20132;-72
2022/06/15 02:35:51;;;;;;;11.15;7.53;;;;;;;;;;5052001;28;20048;-71
2022/06/15 02:38:18;;;;;;;12.98;7.28;;;;;;;;;;5034672;28;20068;-71
2022/06/15 02:40:44;;;;;;;12.48;7.22;;;;;;;;;;5051350;28;20052;-72
2022/06/15 02:43:11;;;;;;;11.13;6.65;;;;;;;;;;5050934;28;20041;-72
2022/06/15 02:45:38;;;;;;;17.02;7.68;;;;;;;;;;5049132;28;20505;-72
2022/06/15 02:48:05;;;;;;;13.15;7.50;;;;;;;;;;5051065;28;20032;-72
2022/06/15 02:50:38;;;;;;;12.75;7.05;;;;;;;;;;5052737;28;20390;-71
2022/06/15 02:53:15;;;;;;;12.02;7.50;;;;;;;;;;5057288;28;20424;-72
2022/06/15 02:55:41;;;;;;;14.43;7.30;;;;;;;;;;5060201;28;20416;-72
2022/06/15 02:58:08;;;;;;;11.40;7.25;;;;;;;;;;5066744;28;20044;-72
2022/06/15 03:00:34;;;;;;;13.85;7.15;;;;;;;;;;5071149;28;20044;-72
2022/06/15 03:03:00;;;;;;;10.07;6.28;;;;;;;;;;5071662;28;20040;-72
2022/06/15 03:05:26;;;;;;;13.27;7.03;;;;;;;;;;5062929;28;20072;-71
2022/06/15 03:07:52;;;;;;;13.38;6.75;;;;;;;;;;5064617;28;20039;-72
2022/06/15 03:10:18;;;;;;;11.75;6.10;;;;;;;;;;5070492;28;20139;-71
2022/06/15 03:12:44;;;;;;;12.55;6.88;;;;;;;;;;5071280;28;20564;-72
2022/06/15 03:15:11;;;;;;;11.20;5.65;;;;;;;;;;5067998;28;20048;-72
2022/06/15 03:17:37;;;;;;;13.68;7.32;;;;;;;;;;5050562;28;20396;-72
2022/06/15 03:20:03;;;;;;;12.43;7.18;;;;;;;;;;5066403;28;20048;-72
2022/06/15 03:22:32;;;;;;;12.73;6.70;;;;;;;;;;5072313;28;20080;-74
2022/06/15 03:24:58;;;;;;;11.93;7.15;;;;;;;;;;5070809;28;20447;-74
2022/06/15 03:27:24;;;;;;;13.40;5.65;;;;;;;;;;5056205;28;20029;-74
2022/06/15 03:29:50;;;;;;;11.60;6.43;;;;;;;;;;5052779;28;20110;-74
2022/06/15 03:32:17;;;;;;;9.68;6.05;;;;;;;;;;5068471;28;20101;-74
2022/06/15 03:34:43;;;;;;;12.48;6.50;;;;;;;;;;5071890;28;20037;-74
2022/06/15 03:37:10;;;;;;;11.95;6.32;;;;;;;;;;5061612;28;20255;-74
2022/06/15 03:39:36;;;;;;;10.88;6.30;;;;;;;;;;5045632;28;20178;-75
2022/06/15 03:42:08;;;;;;;10.80;6.57;;;;;;;;;;5071630;28;20080;-75
2022/06/15 03:44:34;;;;;;;12.90;7.30;;;;;;;;;;5026708;28;20036;-75
2022/06/15 03:47:00;;;;;;;13.63;6.50;;;;;;;;;;5065077;28;20042;-75
2022/06/15 03:49:26;;;;;;;12.93;5.88;;;;;;;;;;5062946;28;20147;-75
2022/06/15 03:51:52;;;;;;;11.25;6.95;;;;;;;;;;5070539;28;20118;-75
2022/06/15 03:54:18;;;;;;;11.60;6.57;;;;;;;;;;5071396;28;20047;-75
2022/06/15 03:56:49;;;;;;;10.27;6.55;;;;;;;;;;5053741;28;20090;-75
2022/06/15 03:59:15;;;;;;;12.63;6.57;;;;;;;;;;5051521;28;20120;-74
2022/06/15 04:01:41;;;;;;;12.98;6.15;;;;;;;;;;5054984;28;20028;-74
2022/06/15 04:04:09;;;;;;;10.05;6.10;;;;;;;;;;5055087;28;20127;-75
2022/06/15 04:06:35;;;;;;;8.73;5.63;;;;;;;;;;5033191;28;20044;-75
2022/06/15 04:09:01;;;;;;;12.02;6.30;;;;;;;;;;5048622;28;20145;-75
2022/06/15 04:14:12;;;;;;;11.13;5.80;;;;;;;;;;5050043;28;20051;-75
2022/06/15 04:16:38;;;;;;;9.57;5.32;;;;;;;;;;5017160;28;20040;-75
2022/06/15 04:19:07;;;;;;;11.52;5.32;;;;;;;;;;5048703;28;20056;-75
2022/06/15 04:21:33;;;;;;;9.38;5.90;;;;;;;;;;5047531;28;20045;-75
2022/06/15 04:23:59;;;;;;;13.00;5.40;;;;;;;;;;5051319;28;20037;-75
2022/06/15 04:26:25;;;;;;;10.27;5.20;;;;;;;;;;5033190;28;20397;-75
2022/06/15 04:28:51;;;;;;;9.35;4.70;;;;;;;;;;5048650;28;20114;-74
2022/06/15 04:31:17;;;;;;;8.13;5.18;;;;;;;;;;5048811;28;20087;-73
2022/06/15 04:33:43;;;;;;;8.43;5.10;;;;;;;;;;5033438;28;20033;-73
2022/06/15 04:36:11;;;;;;;9.15;4.50;;;;;;;;;;5050003;28;20106;-73
2022/06/15 04:38:37;;;;;;;9.73;4.88;;;;;;;;;;5051691;28;20033;-73
2022/06/15 04:41:04;;;;;;;11.35;5.10;;;;;;;;;;5048466;28;20040;-73
2022/06/15 04:43:30;;;;;;;9.52;4.90;;;;;;;;;;5049506;28;20064;-73
2022/06/15 04:45:56;;;;;;;7.75;4.63;;;;;;;;;;5049773;28;20033;-73
2022/06/15 04:48:22;;;;;;;8.00;4.60;;;;;;;;;;5050767;28;20037;-73
2022/06/15 04:50:48;;;;;;;7.25;4.65;;;;;;;;;;5051096;28;20136;-73
2022/06/15 04:53:14;;;;;;;10.85;5.10;;;;;;;;;;5033085;28;20095;-74
2022/06/15 04:55:40;;;;;;;10.45;4.65;;;;;;;;;;5064291;28;20040;-74
2022/06/15 04:58:07;;;;;;;8.45;4.35;;;;;;;;;;5049971;28;20457;-73
2022/06/15 05:00:35;;;;;;;6.95;4.38;;;;;;;;;;5058290;28;20048;-74
2022/06/15 05:03:01;;;;;;;7.05;4.47;;;;;;;;;;5052335;28;20041;-74
2022/06/15 05:05:27;;;;;;;8.18;4.60;;;;;;;;;;5068003;28;20660;-74
2022/06/15 05:07:54;;;;;;;8.38;4.47;;;;;;;;;;5052260;28;20446;-74
2022/06/15 05:10:21;;;;;;;6.43;4.07;;;;;;;;;;5053072;28;20041;-74
2022/06/15 05:12:47;;;;;;;9.32;4.60;;;;;;;;;;5052193;28;20568;-74
2022/06/15 05:15:14;;;;;;;8.13;3.95;;;;;;;;;;5051987;28;20056;-74
2022/06/15 05:17:41;;;;;;;10.65;4.43;;;;;;;;;;5053320;28;20091;-74
2022/06/15 05:20:08;;;;;;;9.73;4.15;;;;;;;;;;5053564;28;20095;-74
2022/06/15 05:22:34;;;;;;;7.75;4.05;;;;;;;;;;5053244;28;20247;-74
2022/06/15 05:25:00;;;;;;;7.20;4.45;;;;;;;;;;5052847;28;20112;-74
2022/06/15 05:27:26;;;;;;;7.47;3.42;;;;;;;;;;5035519;28;20041;-74
2022/06/15 05:29:52;;;;;;;5.88;3.47;;;;;;;;;;5050961;28;20037;-74
2022/06/15 05:32:19;;;;;;;6.30;3.63;;;;;;;;;;5054979;28;20080;-74
2022/06/15 05:34:45;;;;;;;7.88;3.97;;;;;;;;;;5053708;28;20040;-75
2022/06/15 05:37:11;;;;;;;8.02;3.85;;;;;;;;;;5053777;28;20068;-75
2022/06/15 05:39:37;;;;;;;8.15;3.67;;;;;;;;;;5053652;28;20060;-75
2022/06/15 05:42:04;;;;;;;6.20;3.20;;;;;;;;;;5050692;28;20049;-72
2022/06/15 05:47:03;;;;;;;8.25;3.53;;;;;;;;;;5052443;28;20041;-72
2022/06/15 05:49:29;;;;;;;5.00;2.88;;;;;;;;;;5053677;28;20086;-73
2022/06/15 05:51:55;;;;;;;6.38;3.08;;;;;;;;;;5051239;28;20045;-74
2022/06/15 05:54:21;;;;;;;6.10;3.10;;;;;;;;;;5052136;28;20052;-74
2022/06/15 05:56:47;;;;;;;7.18;3.35;;;;;;;;;;5057529;28;20052;-73
2022/06/15 05:59:14;;;;;;;8.18;3.45;;;;;;;;;;5058672;28;20047;-73
2022/06/15 06:01:41;;;;;;;9.13;3.35;;;;;;;;;;5071560;28;20492;-74
2022/06/15 06:04:07;;;;;;;8.27;3.08;;;;;;;;;;5045305;28;20050;-74
2022/06/15 06:06:33;;;;;;;4.72;2.78;;;;;;;;;;5068403;28;20040;-74
2022/06/15 06:08:59;;;;;;;5.63;2.80;;;;;;;;;;5055580;28;20033;-74
2022/06/15 06:11:26;;;;;;;5.10;2.83;;;;;;;;;;5072912;28;20040;-74
2022/06/15 06:13:52;;;;;;;5.47;2.80;;;;;;;;;;5073096;28;20400;-74
2022/06/15 06:16:18;;;;;;;7.00;3.10;;;;;;;;;;5055511;28;20124;-75
2022/06/15 06:18:44;;;;;;;7.40;2.67;;;;;;;;;;5051965;28;20041;-75
2022/06/15 06:21:11;;;;;;;6.13;2.60;;;;;;;;;;5054431;28;20037;-75
2022/06/15 06:23:39;;;;;;;8.50;2.53;;;;;;;;;;5065517;28;20040;-75
2022/06/15 06:26:06;;;;;;;6.50;2.50;;;;;;;;;;5057000;28;20041;-74
2022/06/15 06:28:34;;;;;;;4.60;2.20;;;;;;;;;;5061655;28;20409;-75
2022/06/15 06:31:01;;;;;;;4.55;2.20;;;;;;;;;;5059562;28;20043;-75
2022/06/15 06:33:28;;;;;;;7.47;2.40;;;;;;;;;;5070966;28;20500;-75
2022/06/15 06:35:55;;;;;;;7.20;2.40;;;;;;;;;;5071866;28;20432;-75
2022/06/15 06:38:22;;;;;;;5.35;2.28;;;;;;;;;;5068303;28;20044;-75
2022/06/15 06:40:55;;;;;;;6.85;2.55;;;;;;;;;;5065314;28;20040;-75
2022/06/15 06:43:22;;;;;;;6.78;2.20;;;;;;;;;;5068564;28;20052;-75
2022/06/15 06:45:48;;;;;;;7.72;2.60;;;;;;;;;;5064301;28;20045;-75
2022/06/15 06:48:14;;;;;;;5.25;2.30;;;;;;;;;;5023322;28;20386;-75
2022/06/15 06:50:41;;;;;;;4.85;2.25;;;;;;;;;;5065610;28;20039;-75
2022/06/15 06:53:08;;;;;;;8.90;2.25;;;;;;;;;;5071102;28;20044;-75
2022/06/15 06:55:34;;;;;;;5.55;2.30;;;;;;;;;;5070808;28;20051;-75
2022/06/15 06:58:01;;;;;;;5.25;2.20;;;;;;;;;;5071193;28;20076;-75
2022/06/15 07:00:28;;;;;;;5.38;2.15;;;;;;;;;;5051411;28;20124;-75
2022/06/15 07:02:54;;;;;;;6.15;2.20;;;;;;;;;;5063958;28;20048;-75
2022/06/15 07:05:20;;;;;;;5.45;1.98;;;;;;;;;;5072421;28;20037;-75
2022/06/15 07:07:47;;;;;;;5.10;2.00;;;;;;;;;;5070928;28;20082;-75
2022/06/15 07:10:14;;;;;;;4.97;1.85;;;;;;;;;;5059461;28;20085;-75
2022/06/15 07:12:42;;;;;;;6.15;2.08;;;;;;;;;;5070451;28;20146;-75
2022/06/15 07:15:09;;;;;;;7.03;2.10;;;;;;;;;;5071011;28;20059;-76
2022/06/15 07:17:35;;;;;;;4.38;2.10;;;;;;;;;;5069996;28;20044;-75
2022/06/15 07:20:01;;;;;;;5.57;1.98;;;;;;;;;;5045833;28;20118;-75
2022/06/15 07:22:27;;;;;;;10.18;2.13;;;;;;;;;;5054436;28;20412;-75
2022/06/15 07:24:53;;;;;;;6.40;2.60;;;;;;;;;;5070661;28;20041;-75
2022/06/15 07:27:20;;;;;;;3.97;1.75;;;;;;;;;;5070937;28;20032;-75
2022/06/15 07:29:46;;;;;;;4.63;2.28;;;;;;;;;;5058744;28;20440;-75
2022/06/15 07:32:13;;;;;;;3.17;1.90;;;;;;;;;;5100002;28;20055;-75
2022/06/15 07:34:40;;;;;;;5.68;1.90;;;;;;;;;;5061619;28;20120;-75
2022/06/15 07:37:07;;;;;;;4.93;2.53;;;;;;;;;;5056273;28;20051;-74
2022/06/15 07:39:33;;;;;;;5.00;1.92;;;;;;;;;;5064437;28;20424;-74
2022/06/15 07:41:59;;;;;;;4.22;1.95;;;;;;;;;;5066921;28;20044;-74
2022/06/15 07:44:27;;;;;;;7.00;2.00;;;;;;;;;;5046925;28;20048;-74
2022/06/15 07:49:54;;;;;;;4.90;2.08;;;;;;;;;;5066478;28;20098;-74
2022/06/15 07:49:54;;;;;;;4.63;1.85;;;;;;;;;;5070009;28;20037;-74
2022/06/15 07:52:21;;;;;;;6.60;1.83;;;;;;;;;;5051106;28;20102;-74
2022/06/15 07:54:48;;;;;;;5.18;1.98;;;;;;;;;;5054680;28;20075;-74
2022/06/15 07:57:15;;;;;;;4.38;1.80;;;;;;;;;;5061383;28;20436;-74
2022/06/15 07:59:41;;;;;;;4.53;1.70;;;;;;;;;;5071985;28;20048;-74
2022/06/15 08:02:07;;;;;;;4.97;1.92;;;;;;;;;;5058553;28;20045;-74
2022/06/15 08:04:33;;;;;;;4.07;1.70;;;;;;;;;;5062680;28;20086;-74
2022/06/15 08:06:59;;;;;;;6.93;1.92;;;;;;;;;;5101614;28;20130;-74
2022/06/15 08:09:26;;;;;;;4.57;1.73;;;;;;;;;;5062658;28;20536;-74
2022/06/15 08:14:38;;;;;;;4.15;1.60;;;;;;;;;;5056981;28;20106;-74
2022/06/15 08:17:05;;;;;;;4.10;1.77;;;;;;;;;;5065017;28;20049;-74
2022/06/15 08:19:33;;;;;;;4.93;1.80;;;;;;;;;;5060162;28;20049;-74
2022/06/15 08:21:59;;;;;;;4.78;2.00;;;;;;;;;;5038499;28;20041;-74
2022/06/15 08:24:26;;;;;;;4.65;2.00;;;;;;;;;;5072418;28;20067;-74
2022/06/15 08:26:52;;;;;;;4.93;1.92;;;;;;;;;;5073151;28;20489;-74
2022/06/15 08:29:19;;;;;;;5.22;1.67;;;;;;;;;;5058864;28;20047;-74
2022/06/15 08:31:45;;;;;;;4.82;1.67;;;;;;;;;;5051912;28;20040;-75
2022/06/15 08:34:12;;;;;;;4.55;1.80;;;;;;;;;;5063859;28;20507;-74
2022/06/15 08:36:38;;;;;;;4.65;1.60;;;;;;;;;;5056718;28;20048;-74
2022/06/15 08:39:05;;;;;;;4.32;1.40;;;;;;;;;;5100402;28;20054;-75
2022/06/15 08:41:37;;;;;;;3.60;1.50;;;;;;;;;;5050777;28;20077;-74
2022/06/15 08:44:15;;;;;;;3.95;1.60;;;;;;;;;;5060762;28;20053;-74
2022/06/15 08:47:00;;;;;;;4.88;1.40;;;;;;;;;;5072954;28;20078;-74
2022/06/15 08:49:36;;;;;;;4.20;1.15;;;;;;;;;;5063232;28;20126;-75
2022/06/15 08:52:05;;;;;;;6.05;1.80;;;;;;;;;;5049984;28;20136;-74
2022/06/15 08:54:37;;;;;;;5.22;1.70;;;;;;;;;;5068011;28;20042;-74
2022/06/15 08:57:18;;;;;;;3.92;1.50;;;;;;;;;;5055654;28;20040;-74
2022/06/15 08:59:46;;;;;;;6.03;1.92;;;;;;;;;;5045227;28;20045;-74
2022/06/15 09:02:35;;;;;;;4.95;1.63;;;;;;;;;;5071010;28;20047;-74
2022/06/15 09:05:26;;;;;;;5.50;1.90;;;;;;;;;;5061528;28;20032;-74
2022/06/15 09:08:11;;;;;;;4.30;1.80;;;;;;;;;;5065124;28;20037;-74
2022/06/15 09:10:40;;;;;;;5.10;1.70;;;;;;;;;;5047047;28;20547;-74
2022/06/15 09:13:16;;;;;;;5.15;1.60;;;;;;;;;;5067657;28;20128;-74
2022/06/15 09:15:48;;;;;;;4.47;1.75;;;;;;;;;;5064932;28;20037;-74
2022/06/15 09:18:15;;;;;;;3.78;1.73;;;;;;;;;;5066174;28;20044;-74
2022/06/15 09:20:46;;;;;;;4.03;1.67;;;;;;;;;;5061444;28;20036;-74
2022/06/15 09:23:17;;;;;;;5.30;1.70;;;;;;;;;;5065412;28;20530;-74
2022/06/15 09:25:49;;;;;;;7.45;2.05;;;;;;;;;;5069463;28;20171;-74
2022/06/15 09:28:25;;;;;;;6.53;2.05;;;;;;;;;;5065252;28;20040;-74
2022/06/15 09:30:52;;;;;;;4.68;1.67;;;;;;;;;;5053651;28;20037;-74
2022/06/15 09:33:29;;;;;;;5.05;2.08;;;;;;;;;;5045385;28;20515;-74
2022/06/15 09:36:02;;;;;;;5.88;2.10;;;;;;;;;;5070805;28;20142;-74
2022/06/15 09:38:30;;;;;;;4.20;1.80;;;;;;;;;;5062013;28;20049;-74
2022/06/15 09:41:00;;;;;;;6.32;2.28;;;;;;;;;;5056418;28;20036;-74
2022/06/15 09:43:45;;;;;;;4.68;2.00;;;;;;;;;;5072306;28;20052;-74
2022/06/15 09:46:23;;;;;;;5.00;2.00;;;;;;;;;;5057961;28;20059;-75
2022/06/15 09:48:52;;;;;;;3.97;1.80;;;;;;;;;;5041940;28;20278;-74
2022/06/15 09:51:27;;;;;;;3.92;1.67;;;;;;;;;;5069267;28;20396;-74
2022/06/15 09:54:19;;;;;;;6.90;2.10;;;;;;;;;;5052400;28;20049;-74
2022/06/15 09:56:45;;;;;;;3.53;1.85;;;;;;;;;;5086685;28;20123;-75
2022/06/15 09:59:13;;;;;;;6.85;1.92;;;;;;;;;;5033283;28;20123;-75
2022/06/15 10:01:45;;;;;;;5.35;2.30;;;;;;;;;;5071044;28;20120;-75
2022/06/15 10:04:17;;;;;;;5.03;2.30;;;;;;;;;;5067233;28;20411;-75
2022/06/15 10:06:46;;;;;;;4.22;2.20;;;;;;;;;;5071228;28;20040;-75
2022/06/15 10:09:17;;;;;;;3.58;1.80;;;;;;;;;;5068464;28;20044;-75
2022/06/15 10:11:46;;;;;;;4.93;1.90;;;;;;;;;;5067074;28;20044;-77
2022/06/15 10:14:20;;;;;;;5.15;2.00;;;;;;;;;;5048962;28;20040;-76
2022/06/15 10:17:06;;;;;;;4.90;2.13;;;;;;;;;;5049058;28;20059;-75
2022/06/15 10:19:33;;;;;;;3.58;1.85;;;;;;;;;;5104223;28;20068;-76
2022/06/15 10:22:01;;;;;;;4.53;2.00;;;;;;;;;;5071071;28;20036;-76
2022/06/15 10:24:30;;;;;;;4.40;1.80;;;;;;;;;;5054446;28;20397;-75
2022/06/15 10:27:14;;;;;;;5.72;2.42;;;;;;;;;;5066181;28;20036;-76
2022/06/15 10:29:40;;;;;;;3.97;1.60;;;;;;;;;;5063499;28;20075;-76
2022/06/15 10:32:09;;;;;;;4.18;1.73;;;;;;;;;;5050348;28;20048;-75
2022/06/15 10:34:48;;;;;;;5.03;2.10;;;;;;;;;;5060012;28;20040;-75
2022/06/15 10:37:22;;;;;;;5.68;1.92;;;;;;;;;;5066798;28;20052;-74
2022/06/15 10:39:49;;;;;;;4.70;1.77;;;;;;;;;;5067339;28;20388;-75
2022/06/15 10:42:21;;;;;;;6.05;1.92;;;;;;;;;;5066100;28;20055;-75
2022/06/15 10:45:01;;;;;;;4.57;1.92;;;;;;;;;;5061093;28;20060;-75
2022/06/15 10:47:42;;;;;;;4.95;1.70;;;;;;;;;;5065499;28;20044;-76
2022/06/15 10:50:32;;;;;;;4.13;1.90;;;;;;;;;;5068697;28;20492;-75
2022/06/15 10:53:05;;;;;;;5.85;1.95;;;;;;;;;;5061757;28;20049;-75
2022/06/15 11:04:21;;;;;;;5.15;1.70;;;;;;;;;;5035984;28;20096;-75
2022/06/15 11:07:02;;;;;;;4.20;1.60;;;;;;;;;;5052136;28;20045;-75
2022/06/15 11:09:33;;;;;;;3.13;1.60;;;;;;;;;;5053161;28;20048;-75
2022/06/15 11:12:01;;;;;;;4.47;1.90;;;;;;;;;;5051096;28;20032;-75
2022/06/15 11:14:36;;;;;;;4.47;1.55;;;;;;;;;;5051980;28;20052;-75
2022/06/15 11:20:08;;;;;;;;;;;;;;;;;;5046528;28;20052;-76
2022/06/15 11:22:35;;;;;;;4.60;1.70;;;;;;;;;;5034018;28;19916;-75
2022/06/15 11:25:04;;;;;;;5.13;2.00;;;;;;;;;;5051750;28;20397;-75
2022/06/15 11:27:37;;;;;;;3.95;1.88;;;;;;;;;;5049334;28;20485;-75
2022/06/15 11:30:18;;;;;;;4.47;1.80;;;;;;;;;;5042984;28;20033;-75
2022/06/15 11:32:52;;;;;;;5.00;1.90;;;;;;;;;;5049468;28;20045;-75
2022/06/15 11:35:23;;;;;;;6.00;1.75;;;;;;;;;;5050369;28;20044;-75
2022/06/15 11:37:49;;;;;;;4.70;2.00;;;;;;;;;;5050309;28;20048;-75
2022/06/15 11:40:22;;;;;;;4.60;1.75;;;;;;;;;;5032898;28;20041;-76
2022/06/15 11:42:51;;;;;;;5.57;1.70;;;;;;;;;;5049626;28;20072;-78
2022/06/15 11:45:20;;;;;;;7.68;1.80;;;;;;;;;;5083452;28;20048;-76
2022/06/15 11:47:52;;;;;;;3.90;1.70;;;;;;;;;;5049379;28;20037;-77
2022/06/15 11:50:39;;;;;;;2.70;1.50;;;;;;;;;;5049412;28;20048;-76
2022/06/15 11:53:23;;;;;;;5.25;1.80;;;;;;;;;;5047616;28;20131;-77
2022/06/15 11:55:53;;;;;;;3.28;1.40;;;;;;;;;;5053561;28;20090;-76
2022/06/15 11:58:28;;;;;;;5.22;1.80;;;;;;;;;;5047595;28;20119;-76
2022/06/15 12:01:00;;;;;;;4.07;1.90;;;;;;;;;;5076561;28;20132;-76
2022/06/15 12:03:43;;;;;;;3.85;1.58;;;;;;;;;;5051908;28;20063;-76
2022/06/15 12:06:13;;;;;;;4.03;1.50;;;;;;;;;;5053911;28;20033;-76
2022/06/15 12:08:44;;;;;;;3.85;1.70;;;;;;;;;;5037804;28;20444;-76
2022/06/15 12:14:24;;;;;;;4.85;1.88;;;;;;;;;;5074794;28;20079;-76
2022/06/15 12:16:56;;;;;;;4.88;1.80;;;;;;;;;;5063733;28;20128;-76
2022/06/15 12:19:29;;;;;;;4.53;1.77;;;;;;;;;;5037477;28;20041;-76
2022/06/15 12:21:59;;;;;;;6.07;1.75;;;;;;;;;;5052952;28;20041;-76
2022/06/15 12:24:32;;;;;;;4.57;1.80;;;;;;;;;;5053998;28;20043;-76
2022/06/15 12:27:16;;;;;;;3.88;1.55;;;;;;;;;;5053216;28;20112;-77
2022/06/15 12:29:42;;;;;;;4.60;1.67;;;;;;;;;;5053417;28;20047;-77
2022/06/15 12:32:36;;;;;;;5.18;1.60;;;;;;;;;;5052694;28;20041;-76
2022/06/15 12:35:10;;;;;;;3.90;1.88;;;;;;;;;;5051567;28;20190;-76
2022/06/15 12:37:46;;;;;;;4.00;1.58;;;;;;;;;;5054056;28;20076;-76
2022/06/15 12:40:31;;;;;;;4.03;1.50;;;;;;;;;;5053689;28;20049;-76
2022/06/15 12:43:07;;;;;;;6.38;1.80;;;;;;;;;;5054200;28;20505;-77
2022/06/15 12:45:35;;;;;;;4.50;1.90;;;;;;;;;;5053711;28;20555;-75
2022/06/15 12:48:04;;;;;;;3.97;1.73;;;;;;;;;;5044565;28;20119;-75
2022/06/15 12:50:35;;;;;;;4.47;1.65;;;;;;;;;;5053787;28;20120;-74
2022/06/15 12:53:31;;;;;;;4.38;1.75;;;;;;;;;;5052448;28;20040;-74
2022/06/15 12:56:03;;;;;;;8.00;1.70;;;;;;;;;;5057224;28;20539;-75
2022/06/15 12:58:45;;;;;;;4.47;1.70;;;;;;;;;;5066839;28;20051;-74
2022/06/15 13:01:17;;;;;;;4.85;1.50;;;;;;;;;;5089842;28;20127;-75
2022/06/15 13:03:53;;;;;;;5.25;1.60;;;;;;;;;;5028049;28;20565;-75
2022/06/15 13:06:24;;;;;;;4.53;1.60;;;;;;;;;;5036514;28;20049;-75
2022/06/15 13:09:20;;;;;;;3.55;1.40;;;;;;;;;;5036895;28;20403;-75
2022/06/15 13:11:48;;;;;;;6.70;1.70;;;;;;;;;;5053484;28;20473;-75
2022/06/15 13:14:19;;;;;;;4.65;1.70;;;;;;;;;;5052399;28;20040;-75
2022/06/15 13:16:58;;;;;;;2.83;1.60;;;;;;;;;;5052958;28;20126;-75
2022/06/15 13:19:29;;;;;;;4.38;1.83;;;;;;;;;;5046962;28;20049;-75
2022/06/15 13:21:56;;;;;;;4.57;1.60;;;;;;;;;;5052965;28;20523;-76
2022/06/15 13:24:23;;;;;;;4.38;1.60;;;;;;;;;;5041080;28;20045;-75
2022/06/15 13:26:52;;;;;;;3.40;1.60;;;;;;;;;;5036110;28;20041;-75
2022/06/15 13:29:20;;;;;;;3.92;1.50;;;;;;;;;;5053250;28;20432;-75
2022/06/15 13:31:47;;;;;;;4.07;1.85;;;;;;;;;;5052776;28;20052;-75
2022/06/15 13:34:13;;;;;;;4.68;1.80;;;;;;;;;;5035467;28;20094;-75
2022/06/15 13:36:40;;;;;;;7.82;1.67;;;;;;;;;;5053051;28;20041;-76
2022/06/15 13:39:26;;;;;;;2.97;1.35;;;;;;;;;;5053170;28;20124;-75
2022/06/15 13:42:21;;;;;;;3.60;1.60;;;;;;;;;;5053929;28;20116;-76
2022/06/15 13:44:52;;;;;;;3.97;1.67;;;;;;;;;;5077521;28;20049;-76
2022/06/15 13:47:21;;;;;;;6.13;2.13;;;;;;;;;;5052955;28;20044;-76
2022/06/15 13:49:49;;;;;;;4.25;1.63;;;;;;;;;;5052712;28;20087;-75
2022/06/15 13:52:17;;;;;;;3.25;1.63;;;;;;;;;;5053328;28;20032;-75
2022/06/15 13:54:47;;;;;;;4.15;1.55;;;;;;;;;;5054987;28;20036;-75
2022/06/15 13:57:19;;;;;;;5.53;2.08;;;;;;;;;;5063560;28;20048;-75
2022/06/15 13:59:55;;;;;;;5.15;1.90;;;;;;;;;;5068955;28;20474;-75
2022/06/15 14:02:40;;;;;;;5.85;1.90;;;;;;;;;;5062143;28;20474;-75
2022/06/15 14:05:10;;;;;;;5.57;1.65;;;;;;;;;;5072447;28;20141;-76
2022/06/15 14:07:49;;;;;;;5.45;1.63;;;;;;;;;;5064510;28;20079;-75
2022/06/15 14:10:39;;;;;;;4.72;1.70;;;;;;;;;;5073122;28;20115;-75
2022/06/15 14:13:27;;;;;;;3.60;1.63;;;;;;;;;;5094288;28;20040;-76
2022/06/15 14:15:56;;;;;;;3.08;1.70;;;;;;;;;;5061204;28;20068;-76
2022/06/15 14:18:41;;;;;;;5.70;1.90;;;;;;;;;;5066799;28;20048;-76
2022/06/15 14:21:22;;;;;;;4.35;1.85;;;;;;;;;;5072601;28;20063;-76
2022/06/15 14:23:48;;;;;;;5.00;1.92;;;;;;;;;;5098672;28;20039;-76
2022/06/15 14:26:17;;;;;;;3.63;1.83;;;;;;;;;;5060524;28;20045;-76
2022/06/15 14:28:58;;;;;;;4.43;1.65;;;;;;;;;;5055011;28;20037;-76
2022/06/15 14:31:25;;;;;;;4.75;1.70;;;;;;;;;;5084758;28;20041;-76
2022/06/15 14:34:12;;;;;;;5.53;2.00;;;;;;;;;;5055093;28;20040;-76
2022/06/15 14:36:38;;;;;;;6.07;2.03;;;;;;;;;;5063712;28;20515;-76
2022/06/15 14:39:17;;;;;;;6.18;2.50;;;;;;;;;;5071898;28;20415;-76
2022/06/15 14:41:44;;;;;;;5.10;2.38;;;;;;;;;;5071653;28;20052;-75
2022/06/15 14:44:23;;;;;;;7.43;2.45;;;;;;;;;;5071434;28;20090;-76
2022/06/15 14:46:52;;;;;;;4.63;2.28;;;;;;;;;;5060629;28;20488;-76
2022/06/15 14:49:24;;;;;;;4.18;2.25;;;;;;;;;;5068381;28;20041;-76
2022/06/15 14:51:51;;;;;;;5.35;2.60;;;;;;;;;;5105430;28;20037;-76
2022/06/15 14:54:19;;;;;;;6.30;2.65;;;;;;;;;;5072212;28;20072;-75
2022/06/15 14:56:48;;;;;;;9.30;2.50;;;;;;;;;;5063928;28;20040;-75
2022/06/15 14:59:19;;;;;;;7.40;2.83;;;;;;;;;;5067529;28;20401;-75
2022/06/15 15:02:06;;;;;;;7.57;2.70;;;;;;;;;;5068985;28;20051;-75
2022/06/15 15:04:34;;;;;;;5.70;2.70;;;;;;;;;;5070380;28;20455;-75
2022/06/15 15:07:01;;;;;;;4.43;2.45;;;;;;;;;;5067191;28;20111;-75
2022/06/15 15:09:28;;;;;;;7.35;2.88;;;;;;;;;;5053950;28;20116;-75
2022/06/15 15:11:55;;;;;;;4.00;2.30;;;;;;;;;;5045565;28;20512;-75
2022/06/15 15:14:21;;;;;;;5.63;2.47;;;;;;;;;;5070991;28;20489;-75
2022/06/15 15:16:59;;;;;;;7.63;2.53;;;;;;;;;;5068246;28;20041;-75
2022/06/15 15:19:44;;;;;;;5.53;2.70;;;;;;;;;;5059859;28;20036;-75
2022/06/15 15:22:19;;;;;;;5.97;2.38;;;;;;;;;;5066744;28;20037;-75